Time;durP1;ratioP1;P1;durP2;ratioP2;P2;SDS_P1;SDS_P2;PMS_P1;PMS_P2;Temp;Humidity;BMP_temperature;BMP_pressure;BME280_temperature;BME280_humidity;BME280_pressure;Samples;Min_cycle;Max_cycle;Signal;HPM_P1;HPM_P2
2024/04/13 00:02:21;;;;;;;5.13;3.45;;;;;;;14.77;80.87;100934.84;6924275;25;19996;-66
2024/04/13 00:05:24;;;;;;;5.80;3.55;;;;;;;14.71;81.85;100927.38;6928604;25;19996;-67
2024/04/13 00:08:27;;;;;;;4.55;3.22;;;;;;;14.69;81.90;100932.72;6879506;25;20361;-67
2024/04/13 00:11:28;;;;;;;7.38;3.53;;;;;;;14.72;81.57;100936.91;6915932;25;19996;-67
2024/04/13 00:14:33;;;;;;;5.63;3.90;;;;;;;14.67;82.28;100937.22;6939659;25;20068;-67
2024/04/13 00:17:34;;;;;;;11.38;3.47;;;;;;;14.65;81.59;100933.00;6919146;25;20471;-67
2024/04/13 00:20:35;;;;;;;3.90;2.80;;;;;;;14.63;81.33;100930.47;6919330;25;20008;-67
2024/04/13 00:23:37;;;;;;;5.87;3.13;;;;;;;14.57;81.25;100930.88;6885814;25;20064;-67
2024/04/13 00:26:38;;;;;;;6.70;3.63;;;;;;;14.52;81.36;100936.38;6932339;25;20237;-68
2024/04/13 00:29:39;;;;;;;5.27;2.53;;;;;;;14.54;81.21;100932.81;6895095;25;20011;-69
2024/04/13 00:32:40;;;;;;;3.65;2.72;;;;;;;14.53;81.44;100926.72;6925953;25;20364;-67
2024/04/13 00:35:41;;;;;;;5.70;3.20;;;;;;;14.50;82.56;100927.75;6926890;25;20588;-76
2024/04/13 00:38:42;;;;;;;3.92;2.67;;;;;;;14.50;81.33;100926.94;6895486;25;19997;-67
2024/04/13 00:41:43;;;;;;;5.47;2.67;;;;;;;14.47;81.17;100921.84;6875861;25;20000;-76
2024/04/13 00:44:45;;;;;;;4.20;2.50;;;;;;;14.43;81.79;100923.84;6899415;25;20007;-75
2024/04/13 00:47:47;;;;;;;4.57;2.65;;;;;;;14.43;81.99;100928.25;6895824;25;20315;-75
2024/04/13 00:50:58;;;;;;;2.47;2.10;;;;;;;14.42;82.19;100929.19;6867459;25;20315;-69
2024/04/13 00:53:59;;;;;;;4.65;2.55;;;;;;;14.39;81.99;100925.00;6943384;25;20729;-67
2024/04/13 00:57:03;;;;;;;3.13;2.28;;;;;;;14.36;82.33;100921.72;6899748;25;20001;-67
2024/04/13 01:00:05;;;;;;;6.95;2.88;;;;;;;14.28;83.32;100912.50;6906179;25;20000;-74
2024/04/13 01:03:08;;;;;;;4.82;2.20;;;;;;;14.22;83.57;100915.53;6921120;25;19996;-75
2024/04/13 01:06:13;;;;;;;9.27;2.33;;;;;;;14.20;84.15;100922.66;6900255;25;20012;-67
2024/04/13 01:09:14;;;;;;;3.88;2.45;;;;;;;14.16;84.58;100921.16;6891639;25;20394;-75
2024/04/13 01:12:16;;;;;;;4.20;2.60;;;;;;;14.11;84.98;100918.81;6918105;25;20011;-75
2024/04/13 01:15:17;;;;;;;5.55;2.50;;;;;;;14.10;85.29;100919.78;6929779;25;20012;-75
2024/04/13 01:18:20;;;;;;;3.73;2.23;;;;;;;14.06;86.04;100918.28;6914887;25;20128;-75
2024/04/13 01:21:21;;;;;;;4.10;2.15;;;;;;;14.02;86.23;100910.66;6911336;25;19997;-75
2024/04/13 01:24:22;;;;;;;3.85;2.38;;;;;;;13.96;86.01;100919.78;6905957;25;20008;-75
2024/04/13 01:27:23;;;;;;;10.90;2.50;;;;;;;13.91;86.19;100908.72;6929864;25;20349;-76
2024/04/13 01:30:29;;;;;;;3.70;2.13;;;;;;;13.87;86.55;100918.53;6945197;25;20231;-76
2024/04/13 01:33:30;;;;;;;3.28;2.03;;;;;;;13.78;86.92;100911.25;6877960;25;20324;-75
2024/04/13 01:36:48;;;;;;;6.28;2.67;;;;;;;13.73;87.61;100907.22;6948562;25;20000;-75
2024/04/13 01:39:50;;;;;;;4.03;2.45;;;;;;;13.69;87.54;100914.41;6948472;25;20075;-76
2024/04/13 01:42:52;;;;;;;3.45;2.38;;;;;;;13.61;88.42;100908.78;6890942;25;20000;-76
2024/04/13 01:45:54;;;;;;;4.20;2.50;;;;;;;13.63;88.58;100907.78;6919463;25;20011;-75
2024/04/13 01:48:54;;;;;;;2.70;2.28;;;;;;;13.61;89.37;100901.78;6873979;25;19997;-75
2024/04/13 01:51:56;;;;;;;3.80;2.53;;;;;;;13.65;89.52;100897.19;6911862;25;20349;-75
2024/04/13 01:54:57;;;;;;;3.23;2.30;;;;;;;13.65;90.19;100890.19;6879645;25;20427;-75
2024/04/13 01:57:58;;;;;;;4.03;2.50;;;;;;;13.67;90.30;100890.06;6883806;25;19993;-75
2024/04/13 02:01:03;;;;;;;4.38;2.20;;;;;;;13.69;90.79;100886.44;6872306;25;20439;-76
2024/04/13 02:04:08;;;;;;;5.80;2.38;;;;;;;13.70;91.11;100892.50;6907061;25;20007;-75
2024/04/13 02:07:09;;;;;;;2.83;2.13;;;;;;;13.73;92.08;100888.84;6920975;25;20011;-75
2024/04/13 02:10:10;;;;;;;4.28;2.33;;;;;;;13.73;92.81;100884.44;6939213;25;20000;-76
2024/04/13 02:13:14;;;;;;;4.80;2.42;;;;;;;13.74;91.97;100887.94;6948868;25;20004;-76
2024/04/13 02:16:15;;;;;;;6.50;2.70;;;;;;;13.71;92.36;100881.06;6936062;25;20000;-75
2024/04/13 02:19:19;;;;;;;3.92;2.45;;;;;;;13.75;92.73;100885.19;6937266;25;20000;-67
2024/04/13 02:22:21;;;;;;;4.25;2.35;;;;;;;13.74;93.69;100882.69;6923103;25;20011;-67
2024/04/13 02:25:22;;;;;;;11.00;2.22;;;;;;;13.72;93.49;100888.03;6891948;25;19996;-76
2024/04/13 02:28:23;;;;;;;8.23;2.55;;;;;;;13.69;92.78;100889.06;6940607;25;20015;-67
2024/04/13 02:31:25;;;;;;;5.07;2.20;;;;;;;13.65;92.13;100881.44;6908632;25;20004;-66
2024/04/13 02:34:26;;;;;;;10.50;2.65;;;;;;;13.66;93.17;100883.16;6949578;25;20007;-76
2024/04/13 02:37:27;;;;;;;11.98;3.30;;;;;;;13.67;91.91;100885.69;6879036;25;19992;-76
2024/04/13 02:40:29;;;;;;;14.75;3.60;;;;;;;13.65;92.71;100884.94;6955528;25;20028;-67
2024/04/13 02:43:31;;;;;;;5.85;2.63;;;;;;;13.65;92.16;100887.56;6896322;25;19996;-67
2024/04/13 02:46:32;;;;;;;3.42;2.25;;;;;;;13.64;92.26;100878.00;6954031;25;19996;-67
2024/04/13 02:49:33;;;;;;;3.85;2.65;;;;;;;13.58;92.17;100888.84;6922509;25;20002;-67
2024/04/13 02:52:36;;;;;;;4.68;2.67;;;;;;;13.57;93.02;100884.56;6945394;25;20452;-67
2024/04/13 02:55:37;;;;;;;6.25;2.50;;;;;;;13.57;94.18;100896.78;6935305;25;19992;-76
2024/04/13 02:58:39;;;;;;;7.65;2.95;;;;;;;13.61;95.16;100904.41;6909502;25;20003;-67
2024/04/13 03:01:40;;;;;;;8.20;3.27;;;;;;;13.60;95.87;100900.09;6921009;25;20477;-67
2024/04/13 03:04:41;;;;;;;11.38;3.25;;;;;;;13.59;95.36;100898.41;6954229;25;20365;-67
2024/04/13 03:07:42;;;;;;;5.50;2.80;;;;;;;13.63;95.14;100896.44;6910982;25;20057;-67
2024/04/13 03:10:55;;;;;;;4.87;3.00;;;;;;;13.60;95.63;100894.84;6908052;25;19993;-68
2024/04/13 03:13:56;;;;;;;5.28;2.85;;;;;;;13.61;96.27;100900.91;6921827;25;20007;-75
2024/04/13 03:16:58;;;;;;;4.53;2.75;;;;;;;13.57;96.24;100905.53;6900184;25;20033;-76
2024/04/13 03:19:59;;;;;;;4.47;2.80;;;;;;;13.56;95.55;100901.22;6875911;25;20024;-75
2024/04/13 03:23:01;;;;;;;10.27;3.13;;;;;;;13.59;96.16;100910.66;6946251;25;19996;-75
2024/04/13 03:26:03;;;;;;;5.43;3.20;;;;;;;13.54;97.32;100905.69;6919883;25;20003;-76
2024/04/13 03:29:04;;;;;;;5.05;3.35;;;;;;;13.42;96.27;100920.38;6905076;25;19996;-75
2024/04/13 03:32:05;;;;;;;5.65;3.10;;;;;;;13.41;96.27;100934.44;6916513;25;19996;-75
2024/04/13 03:35:07;;;;;;;6.80;3.25;;;;;;;13.52;96.93;100930.31;6943120;25;20431;-76
2024/04/13 03:38:09;;;;;;;5.28;3.53;;;;;;;13.57;98.32;100936.13;6951110;25;19996;-76
2024/04/13 03:41:11;;;;;;;8.00;3.13;;;;;;;13.59;98.08;100922.00;6932356;25;20011;-75
2024/04/13 03:44:12;;;;;;;9.50;3.42;;;;;;;13.61;98.85;100920.16;6931967;25;20224;-75
2024/04/13 03:47:13;;;;;;;11.60;3.33;;;;;;;13.59;98.00;100919.38;6900499;25;19993;-75
2024/04/13 03:50:15;;;;;;;34.55;4.93;;;;;;;13.57;97.55;100915.16;6890299;25;20252;-76
2024/04/13 03:53:17;;;;;;;20.75;4.25;;;;;;;13.57;97.41;100920.41;6926539;25;19996;-76
2024/04/13 03:56:18;;;;;;;5.80;3.53;;;;;;;13.54;98.08;100921.44;6929968;25;20008;-76
2024/04/13 03:59:19;;;;;;;16.75;4.07;;;;;;;13.54;97.64;100921.44;6922025;25;20032;-76
2024/04/13 04:02:20;;;;;;;33.10;4.25;;;;;;;13.47;98.11;100926.19;6904966;25;20000;-75
2024/04/13 04:05:22;;;;;;;22.10;3.53;;;;;;;13.43;98.04;100934.34;6913914;25;19992;-76
2024/04/13 04:08:23;;;;;;;7.95;3.40;;;;;;;13.42;98.51;100924.78;6954406;25;20235;-76
2024/04/13 04:11:25;;;;;;;9.57;4.23;;;;;;;13.44;97.89;100922.91;6884986;25;20061;-67
2024/04/13 04:14:27;;;;;;;10.13;3.60;;;;;;;13.43;97.94;100919.44;6918736;25;20232;-67
2024/04/13 04:17:28;;;;;;;10.57;4.37;;;;;;;13.43;96.94;100923.84;6946329;25;20004;-67
2024/04/13 04:20:35;;;;;;;6.80;4.57;;;;;;;13.39;97.22;100919.72;6904298;25;20459;-67
2024/04/13 04:23:37;;;;;;;8.95;4.25;;;;;;;13.39;97.07;100928.44;6935481;25;20053;-75
2024/04/13 04:26:38;;;;;;;8.25;4.63;;;;;;;13.40;97.92;100922.25;6896269;25;20015;-75
2024/04/13 04:29:43;;;;;;;9.20;5.30;;;;;;;13.41;98.30;100926.56;6937124;25;20315;-76
2024/04/13 04:32:46;;;;;;;13.00;5.57;;;;;;;13.36;97.92;100931.22;6928524;25;20000;-76
2024/04/13 04:35:48;;;;;;;9.90;6.27;;;;;;;13.42;99.14;100938.72;6914058;25;20350;-75
2024/04/13 04:38:49;;;;;;;13.77;6.95;;;;;;;13.53;100.00;100932.00;6911208;25;20336;-76
2024/04/13 04:41:51;;;;;;;10.68;6.35;;;;;;;13.70;100.00;100937.94;6906196;25;20351;-76
2024/04/13 04:44:52;;;;;;;;;;;;;;;13.83;100.00;100938.03;6910692;25;19997;-76
2024/04/13 04:47:54;;;;;;;12.48;6.97;;;;;;;13.87;99.75;100944.78;6894100;25;19930;-76
2024/04/13 04:51:00;;;;;;;20.38;7.80;;;;;;;13.97;98.85;100947.69;6940423;25;20019;-76
2024/04/13 04:54:01;;;;;;;19.15;9.57;;;;;;;14.03;99.16;100956.97;6873792;25;19992;-76
2024/04/13 04:57:01;;;;;;;11.20;8.13;;;;;;;14.11;99.11;100958.19;6885803;25;20007;-76
2024/04/13 05:00:04;;;;;;;14.55;8.27;;;;;;;14.18;98.75;100969.16;6924932;25;20004;-76
2024/04/13 05:03:05;;;;;;;15.55;9.52;;;;;;;14.26;98.45;100960.81;6916022;25;20039;-76
2024/04/13 05:06:06;;;;;;;15.77;9.48;;;;;;;14.40;99.35;100963.41;6945969;25;20007;-76
2024/04/13 05:09:09;;;;;;;14.63;9.77;;;;;;;14.43;99.45;100965.88;6896794;25;20436;-76
2024/04/13 05:12:11;;;;;;;16.15;10.70;;;;;;;14.47;99.12;100967.31;6950346;25;19996;-76
2024/04/13 05:15:12;;;;;;;;;;;;;;;14.51;98.83;100976.69;6935653;25;20004;-76
2024/04/13 05:18:14;;;;;;;22.83;11.73;;;;;;;14.48;99.50;100978.69;6896717;25;19930;-76
2024/04/13 05:21:15;;;;;;;20.75;12.65;;;;;;;14.54;99.82;100978.31;6899124;25;19993;-76
2024/04/13 05:24:17;;;;;;;20.65;12.15;;;;;;;14.55;100.00;100995.75;6913832;25;20455;-76
2024/04/13 05:27:18;;;;;;;15.90;10.98;;;;;;;14.60;100.00;101001.59;6883308;25;19997;-76
2024/04/13 05:30:20;;;;;;;;;;;;;;;14.52;100.00;101009.91;6918036;25;20000;-76
2024/04/13 05:33:24;;;;;;;10.25;7.40;;;;;;;14.35;100.00;101010.13;6952247;25;19922;-76
2024/04/13 05:36:25;;;;;;;13.35;7.88;;;;;;;14.55;100.00;101013.28;6932244;25;20012;-76
2024/04/13 05:39:29;;;;;;;12.52;8.25;;;;;;;14.79;100.00;101001.28;6896608;25;19996;-76
2024/04/13 05:42:31;;;;;;;15.88;8.70;;;;;;;14.93;99.18;101010.91;6905498;25;20378;-76
2024/04/13 05:45:35;;;;;;;12.90;8.93;;;;;;;15.06;97.50;101005.69;6872782;25;20004;-76
2024/04/13 05:48:36;;;;;;;14.20;9.00;;;;;;;15.25;96.39;101003.53;6910030;25;20125;-76
2024/04/13 05:51:37;;;;;;;14.87;10.37;;;;;;;15.40;96.25;101000.84;6921753;25;20016;-76
2024/04/13 05:54:39;;;;;;;20.13;10.10;;;;;;;15.56;94.86;101006.78;6872566;25;20064;-76
2024/04/13 05:57:39;;;;;;;13.02;8.88;;;;;;;15.77;93.16;100999.25;6872306;25;20008;-76
2024/04/13 06:00:44;;;;;;;25.98;9.48;;;;;;;15.94;92.06;101002.53;6922989;25;20004;-76
2024/04/13 06:03:45;;;;;;;38.15;9.23;;;;;;;16.18;88.85;101002.63;6894173;25;20451;-76
2024/04/13 06:06:48;;;;;;;21.92;9.07;;;;;;;16.45;88.02;101011.25;6931536;25;20010;-76
2024/04/13 06:09:51;;;;;;;18.55;8.07;;;;;;;16.61;88.08;101007.50;6902815;25;20447;-76
2024/04/13 06:12:51;;;;;;;12.52;6.50;;;;;;;16.68;85.31;101019.31;6872347;25;20462;-76
2024/04/13 06:15:53;;;;;;;20.52;7.10;;;;;;;16.79;84.33;101018.53;6921652;25;20004;-76
2024/04/13 06:18:54;;;;;;;16.65;6.25;;;;;;;16.81;81.50;101022.78;6912369;25;20000;-76
2024/04/13 06:21:56;;;;;;;7.95;5.55;;;;;;;16.92;81.66;101017.59;6904469;25;20344;-75
2024/04/13 06:24:57;;;;;;;9.00;5.37;;;;;;;17.00;81.35;101014.38;6872512;25;20323;-75
2024/04/13 06:27:58;;;;;;;9.45;5.70;;;;;;;17.35;79.89;101010.09;6884545;25;20228;-74
2024/04/13 06:30:59;;;;;;;11.82;5.70;;;;;;;17.51;78.04;101006.19;6951441;25;20577;-76
2024/04/13 06:34:02;;;;;;;10.95;5.72;;;;;;;17.75;76.77;100991.25;6918140;25;20474;-75
2024/04/13 06:37:03;;;;;;;7.95;5.07;;;;;;;17.81;74.49;100988.16;6912351;25;20024;-76
2024/04/13 06:40:06;;;;;;;6.60;4.88;;;;;;;17.72;73.56;100987.06;6951219;25;20466;-75
2024/04/13 06:43:07;;;;;;;13.63;4.78;;;;;;;17.64;74.97;100982.34;6917784;25;19996;-75
2024/04/13 06:46:08;;;;;;;10.73;4.20;;;;;;;17.85;72.88;100984.34;6912193;25;20005;-75
2024/04/13 06:49:10;;;;;;;14.32;4.63;;;;;;;18.12;73.22;100974.31;6903856;25;19993;-75
2024/04/13 06:52:11;;;;;;;9.43;4.40;;;;;;;18.30;70.86;100974.66;6871246;25;19996;-75
2024/04/13 06:55:12;;;;;;;5.93;3.80;;;;;;;18.36;69.74;100975.97;6871034;25;20787;-75
2024/04/13 06:58:14;;;;;;;6.85;4.88;;;;;;;18.57;71.04;100973.41;6875990;25;20225;-75
2024/04/13 07:01:15;;;;;;;12.30;4.72;;;;;;;18.75;70.35;100972.91;6887332;25;20457;-75
2024/04/13 07:04:15;;;;;;;8.50;4.45;;;;;;;18.84;69.16;100975.69;6907883;25;20012;-75
2024/04/13 07:07:17;;;;;;;10.80;4.60;;;;;;;19.08;67.53;100970.16;6949703;25;20011;-77
2024/04/13 07:10:18;;;;;;;6.53;4.65;;;;;;;19.30;69.08;100979.81;6918348;25;20020;-77
2024/04/13 07:13:19;;;;;;;8.73;4.45;;;;;;;19.45;66.04;100987.44;6955338;25;19987;-76
2024/04/13 07:16:20;;;;;;;14.02;4.40;;;;;;;19.58;62.57;100982.81;6921660;25;20008;-76
2024/04/13 07:19:20;;;;;;;11.02;5.30;;;;;;;19.70;63.29;100979.13;6951901;25;20453;-76
2024/04/13 07:22:21;;;;;;;10.60;5.00;;;;;;;19.92;62.60;100988.75;6920720;25;20010;-76
2024/04/13 07:25:22;;;;;;;7.43;4.28;;;;;;;20.19;61.43;100984.69;6921865;25;19988;-76
2024/04/13 07:28:23;;;;;;;6.25;3.50;;;;;;;20.43;59.32;100996.78;6954717;25;20018;-75
2024/04/13 07:31:24;;;;;;;4.93;2.88;;;;;;;20.77;57.97;101001.75;6955038;25;19992;-76
2024/04/13 07:34:25;;;;;;;18.33;4.05;;;;;;;20.98;57.29;100999.84;6954883;25;20064;-68
2024/04/13 07:37:27;;;;;;;9.13;4.15;;;;;;;21.16;57.54;101013.25;6954507;25;19996;-67
2024/04/13 07:40:28;;;;;;;7.85;3.60;;;;;;;21.25;55.39;101006.25;6924620;25;20008;-68
2024/04/13 07:43:30;;;;;;;6.47;3.97;;;;;;;21.41;54.01;100993.25;6914368;25;20357;-76
2024/04/13 07:46:31;;;;;;;9.88;3.65;;;;;;;21.63;55.48;100989.50;6921058;25;19996;-76
2024/04/13 07:49:32;;;;;;;;;;;;;;;21.64;54.09;101004.47;6952796;25;20011;-76
2024/04/13 07:52:34;;;;;;;7.38;3.55;;;;;;;21.68;53.66;100995.25;6923971;25;19923;-76
2024/04/13 07:55:35;;;;;;;6.90;3.65;;;;;;;21.83;52.73;100998.28;6893467;25;19997;-68
2024/04/13 07:58:36;;;;;;;7.65;4.13;;;;;;;21.54;53.73;100998.34;6895284;25;20007;-68
2024/04/13 08:01:37;;;;;;;9.80;4.47;;;;;;;21.70;53.58;100995.94;6915853;25;19997;-68
2024/04/13 08:04:38;;;;;;;7.28;4.20;;;;;;;21.76;52.69;100989.19;6951740;25;20070;-67
2024/04/13 08:07:40;;;;;;;6.85;4.43;;;;;;;21.90;54.59;100980.75;6915779;25;19996;-68
2024/04/13 08:10:42;;;;;;;9.43;3.75;;;;;;;22.06;53.42;100982.81;6906216;25;20007;-68
2024/04/13 08:13:43;;;;;;;9.98;3.90;;;;;;;22.31;52.31;100993.78;6939692;25;20439;-68
2024/04/13 08:16:45;;;;;;;10.20;4.20;;;;;;;22.36;51.11;100996.00;6901522;25;20000;-67
2024/04/13 08:19:46;;;;;;;6.00;3.85;;;;;;;22.36;52.22;100998.66;6952583;25;20028;-69
2024/04/13 08:22:47;;;;;;;9.73;4.37;;;;;;;22.42;51.71;100987.44;6896861;25;20352;-68
2024/04/13 08:25:49;;;;;;;8.15;3.80;;;;;;;22.38;52.60;100988.72;6899154;25;20000;-76
2024/04/13 08:28:50;;;;;;;9.93;4.35;;;;;;;22.38;51.64;100989.53;6953028;25;20008;-76
2024/04/13 08:31:51;;;;;;;8.37;4.37;;;;;;;22.57;51.74;100983.31;6920626;25;20059;-76
2024/04/13 08:34:52;;;;;;;7.47;3.60;;;;;;;22.73;51.33;100987.94;6918109;25;20000;-76
2024/04/13 08:37:53;;;;;;;7.85;4.35;;;;;;;22.94;51.00;100985.84;6898546;25;20075;-76
2024/04/13 08:40:55;;;;;;;10.07;4.30;;;;;;;23.06;49.60;100990.97;6937659;25;20379;-76
2024/04/13 08:43:56;;;;;;;;;;;;;;;23.43;48.91;100992.59;6920691;25;20000;-76
2024/04/13 08:47:00;;;;;;;10.88;3.88;;;;;;;23.74;50.16;100980.53;6920683;25;19946;-76
2024/04/13 08:50:02;;;;;;;16.48;4.10;;;;;;;23.81;48.79;100985.25;6953389;25;20003;-76
2024/04/13 08:53:05;;;;;;;8.13;3.33;;;;;;;23.74;49.03;100977.84;6953100;25;19996;-76
2024/04/13 08:56:07;;;;;;;6.82;3.35;;;;;;;23.83;49.16;100980.59;6919364;25;19992;-76
2024/04/13 08:59:11;;;;;;;7.10;3.85;;;;;;;23.72;49.65;100974.53;6918082;25;19992;-76
2024/04/13 09:02:14;;;;;;;11.70;3.60;;;;;;;23.91;48.47;100964.66;6918595;25;20018;-68
2024/04/13 09:05:15;;;;;;;14.95;3.95;;;;;;;23.91;47.32;100965.50;6952901;25;19996;-68
2024/04/13 09:08:18;;;;;;;19.48;3.88;;;;;;;24.13;47.60;100958.78;6914396;25;20048;-68
2024/04/13 09:11:22;;;;;;;6.40;3.35;;;;;;;24.39;47.38;100957.03;6897890;25;20007;-68
2024/04/13 09:14:23;;;;;;;5.65;3.35;;;;;;;24.31;46.82;100964.00;6949569;25;20044;-68
2024/04/13 09:17:24;;;;;;;12.23;3.10;;;;;;;24.54;44.98;100960.75;6908664;25;20462;-68
2024/04/13 09:20:26;;;;;;;3.20;2.30;;;;;;;24.60;44.53;100952.09;6919770;25;20029;-68
2024/04/13 09:23:29;;;;;;;8.05;2.53;;;;;;;24.80;46.44;100941.97;6952573;25;20007;-69
2024/04/13 09:26:40;;;;;;;5.72;2.60;;;;;;;25.22;44.59;100934.84;6952804;25;20003;-68
2024/04/13 09:29:41;;;;;;;5.57;2.10;;;;;;;25.39;43.07;100933.84;6952399;25;20018;-68
2024/04/13 09:32:43;;;;;;;5.43;1.90;;;;;;;25.30;42.53;100935.66;6952292;25;19988;-68
2024/04/13 09:35:57;;;;;;;1.77;1.42;;;;;;;25.60;40.75;100913.75;6891440;25;20013;-68
2024/04/13 09:38:58;;;;;;;2.60;1.73;;;;;;;25.54;42.98;100920.59;6910526;25;20457;-69
2024/04/13 09:42:07;;;;;;;5.40;2.15;;;;;;;25.65;41.32;100914.88;6907736;25;20304;-69
2024/04/13 09:45:11;;;;;;;14.48;2.55;;;;;;;25.70;41.66;100909.88;6895731;25;19996;-69
2024/04/13 09:48:13;;;;;;;5.05;2.75;;;;;;;25.42;42.06;100905.94;6926344;25;19999;-69
2024/04/13 09:51:14;;;;;;;;;;;;;;;25.50;42.21;100909.41;6888779;25;20003;-70
2024/04/13 09:54:16;;;;;;;8.32;1.95;;;;;;;25.68;41.71;100905.72;6925703;25;20039;-69
2024/04/13 09:57:18;;;;;;;6.10;2.30;;;;;;;25.61;40.55;100902.88;6904950;25;20564;-69
2024/04/13 10:00:20;;;;;;;5.82;2.63;;;;;;;25.55;40.58;100900.88;6926419;25;19993;-76
2024/04/13 10:03:22;;;;;;;4.40;2.20;;;;;;;25.85;41.46;100898.47;6872423;25;20000;-76
2024/04/13 10:06:24;;;;;;;4.78;2.30;;;;;;;26.14;40.99;100892.50;6904945;25;20003;-76
2024/04/13 10:09:28;;;;;;;4.70;2.35;;;;;;;25.95;40.51;100880.41;6917594;25;20466;-76
2024/04/13 10:12:37;;;;;;;5.90;2.50;;;;;;;26.10;40.00;100878.66;6951895;25;19991;-76
2024/04/13 10:15:38;;;;;;;4.70;2.08;;;;;;;26.37;40.42;100878.34;6918159;25;20023;-76
2024/04/13 10:18:41;;;;;;;4.80;2.20;;;;;;;26.22;40.39;100872.91;6918133;25;20004;-77
2024/04/13 10:21:42;;;;;;;8.73;2.30;;;;;;;26.42;39.81;100873.28;6951279;25;19996;-76
2024/04/13 10:24:46;;;;;;;11.43;2.37;;;;;;;26.59;39.36;100872.19;6951472;25;20450;-77
2024/04/13 10:27:47;;;;;;;2.72;1.90;;;;;;;26.87;39.92;100871.63;6917640;25;20323;-77
2024/04/13 10:30:52;;;;;;;5.32;2.17;;;;;;;26.92;38.16;100875.44;6951446;25;20011;-77
2024/04/13 10:33:55;;;;;;;6.78;2.13;;;;;;;26.52;39.34;100861.34;6917902;25;20000;-77
2024/04/13 10:36:57;;;;;;;6.40;1.80;;;;;;;26.48;38.49;100849.34;6917910;25;19992;-76
2024/04/13 10:40:00;;;;;;;7.32;2.10;;;;;;;26.80;37.86;100850.09;6910967;25;20458;-77
2024/04/13 10:43:03;;;;;;;5.45;1.98;;;;;;;26.96;37.57;100837.59;6950827;25;20000;-76
2024/04/13 10:46:05;;;;;;;7.15;1.88;;;;;;;27.24;38.07;100836.00;6920002;25;19996;-77
2024/04/13 10:49:07;;;;;;;9.02;2.05;;;;;;;27.27;37.86;100832.94;6922083;25;20018;-77
2024/04/13 10:52:10;;;;;;;6.13;1.77;;;;;;;27.29;37.61;100827.41;6955721;25;20063;-76
2024/04/13 10:55:17;;;;;;;4.88;1.92;;;;;;;27.10;37.28;100820.72;6909658;25;20001;-76
2024/04/13 10:58:19;;;;;;;13.00;2.45;;;;;;;26.94;38.15;100822.53;6954413;25;19992;-76
2024/04/13 11:01:20;;;;;;;5.45;1.70;;;;;;;27.10;37.76;100823.41;6945802;25;20001;-76
2024/04/13 11:04:21;;;;;;;2.67;1.73;;;;;;;27.33;36.42;100812.63;6875443;25;19997;-77
2024/04/13 11:07:22;;;;;;;5.50;1.67;;;;;;;27.47;36.73;100810.97;6907886;25;20003;-76
2024/04/13 11:10:24;;;;;;;;;;;;;;;27.57;35.39;100811.47;6875640;25;20479;-76
2024/04/13 11:13:25;;;;;;;8.37;1.87;;;;;;;27.35;36.19;100812.44;6921599;25;20020;-77
2024/04/13 11:16:26;;;;;;;2.42;1.77;;;;;;;27.70;34.74;100805.47;6954888;25;19992;-76
2024/04/13 11:19:27;;;;;;;5.28;1.70;;;;;;;27.86;35.88;100799.03;6900615;25;20072;-77
2024/04/13 11:22:28;;;;;;;12.02;1.75;;;;;;;27.93;35.61;100810.72;6907500;25;20443;-76
2024/04/13 11:25:30;;;;;;;3.72;1.52;;;;;;;28.20;33.96;100805.63;6907580;25;20000;-76
2024/04/13 11:28:31;;;;;;;;;;;;;;;27.96;35.72;100802.28;6897508;25;20322;-76
2024/04/13 11:31:33;;;;;;;4.33;2.20;;;;;;;28.05;35.99;100800.34;6954327;25;19922;-76
2024/04/13 11:34:35;;;;;;;1.80;1.48;;;;;;;28.40;36.19;100797.78;6921221;25;20450;-77
2024/04/13 11:37:35;;;;;;;3.22;1.60;;;;;;;28.41;35.45;100786.84;6954076;25;20345;-68
2024/04/13 11:40:36;;;;;;;3.10;1.60;;;;;;;28.43;35.24;100798.22;6950778;25;20007;-69
2024/04/13 11:43:39;;;;;;;;;;;;;;;28.29;34.88;100791.91;6900950;25;20029;-68
2024/04/13 11:46:40;;;;;;;;;;;;;;;26.38;35.97;100786.34;6921084;25;19922;-76
2024/04/13 11:49:42;;;;;;;9.93;1.73;;;;;;;27.13;36.45;100777.47;6920978;25;19923;-76
2024/04/13 11:52:43;;;;;;;;;;;;;;;28.01;35.69;100777.59;6922189;25;20082;-76
2024/04/13 11:55:48;;;;;;;8.73;1.88;;;;;;;28.49;36.11;100781.38;6920646;25;19940;-76
2024/04/13 11:58:53;;;;;;;8.95;2.28;;;;;;;28.41;35.37;100775.28;6919587;25;19992;-76
2024/04/13 12:01:54;;;;;;;7.25;1.95;;;;;;;28.32;35.24;100771.91;6953826;25;20010;-76
2024/04/13 12:04:55;;;;;;;9.40;2.20;;;;;;;28.59;34.97;100767.63;6920689;25;20003;-76
2024/04/13 12:07:56;;;;;;;6.18;1.90;;;;;;;28.65;35.16;100769.53;6920510;25;19996;-76
2024/04/13 12:10:59;;;;;;;5.32;2.00;;;;;;;28.84;35.92;100759.94;6910865;25;20351;-75
2024/04/13 12:14:00;;;;;;;4.95;1.73;;;;;;;27.52;34.43;100761.13;6920574;25;20331;-76
2024/04/13 12:17:02;;;;;;;;;;;;;;;28.20;34.53;100760.03;6907475;25;20027;-76
2024/04/13 12:20:03;;;;;;;9.95;1.80;;;;;;;28.25;35.11;100755.75;6924060;25;19934;-76
2024/04/13 12:23:04;;;;;;;;;;;;;;;28.05;33.22;100752.88;6954139;25;20457;-76
2024/04/13 12:26:05;;;;;;;1.30;1.20;;;;;;;28.15;32.94;100747.19;6919732;25;19950;-76
2024/04/13 12:29:06;;;;;;;7.57;1.30;;;;;;;28.08;33.23;100755.16;6953415;25;20409;-76
2024/04/13 12:32:07;;;;;;;4.47;2.08;;;;;;;27.64;32.84;100739.22;6920123;25;20008;-75
2024/04/13 12:35:10;;;;;;;2.13;1.45;;;;;;;28.07;34.14;100745.47;6920113;25;20024;-75
2024/04/13 12:38:11;;;;;;;3.53;1.45;;;;;;;28.29;34.04;100742.75;6953343;25;20003;-76
2024/04/13 12:41:13;;;;;;;1.60;0.93;;;;;;;27.57;32.85;100733.75;6953498;25;20070;-76
2024/04/13 12:44:14;;;;;;;9.07;1.30;;;;;;;27.63;31.72;100741.03;6920212;25;20004;-76
2024/04/13 12:47:16;;;;;;;;;;;;;;;27.01;31.79;100742.28;6920971;25;20020;-76
2024/04/13 12:50:17;;;;;;;2.05;1.10;;;;;;;27.20;32.62;100738.25;6911077;25;20272;-75
2024/04/13 12:53:19;;;;;;;3.05;1.38;;;;;;;27.91;33.67;100725.09;6888434;25;19996;-76
2024/04/13 12:56:20;;;;;;;6.47;1.20;;;;;;;27.91;34.57;100724.25;6901649;25;20063;-75
2024/04/13 12:59:21;;;;;;;3.15;1.55;;;;;;;27.63;34.61;100724.97;6903626;25;19996;-76
2024/04/13 13:02:22;;;;;;;1.70;0.90;;;;;;;27.81;33.12;100724.53;6908313;25;20001;-76
2024/04/13 13:05:23;;;;;;;8.65;1.33;;;;;;;27.83;33.97;100710.94;6906426;25;20000;-75
2024/04/13 13:08:25;;;;;;;5.03;1.42;;;;;;;27.29;34.66;100709.53;6892311;25;20000;-75
2024/04/13 13:11:25;;;;;;;2.67;1.70;;;;;;;26.61;36.35;100706.94;6953015;25;20036;-75
2024/04/13 13:14:26;;;;;;;4.05;1.60;;;;;;;26.50;35.15;100694.81;6952717;25;20093;-76
2024/04/13 13:17:27;;;;;;;7.72;1.63;;;;;;;26.53;36.66;100693.59;6919020;25;20006;-75
2024/04/13 13:20:28;;;;;;;3.80;1.52;;;;;;;27.17;36.46;100687.72;6923699;25;19996;-75
2024/04/13 13:23:29;;;;;;;3.22;1.63;;;;;;;27.30;35.21;100681.72;6952480;25;20003;-76
2024/04/13 13:26:30;;;;;;;4.10;1.70;;;;;;;27.42;35.53;100674.84;6919423;25;20357;-75
2024/04/13 13:29:30;;;;;;;5.05;2.03;;;;;;;27.43;35.71;100676.53;6952493;25;20003;-76
2024/04/13 13:32:32;;;;;;;3.03;1.90;;;;;;;27.50;35.32;100661.31;6952430;25;20365;-76
2024/04/13 13:35:33;;;;;;;3.78;1.67;;;;;;;27.48;36.13;100652.66;6952380;25;20000;-75
2024/04/13 13:38:34;;;;;;;2.28;1.52;;;;;;;27.44;36.08;100653.22;6919073;25;20014;-75
2024/04/13 13:41:36;;;;;;;8.20;1.75;;;;;;;27.48;34.71;100654.50;6906867;25;20012;-76
2024/04/13 13:44:37;;;;;;;4.03;2.38;;;;;;;27.73;33.99;100654.97;6854433;25;20066;-76
2024/04/13 13:47:38;;;;;;;8.57;1.58;;;;;;;27.58;34.52;100649.66;6929630;25;20063;-76
2024/04/13 13:50:39;;;;;;;9.23;2.05;;;;;;;27.64;35.91;100650.75;6918492;25;20510;-76
2024/04/13 13:53:42;;;;;;;3.75;1.92;;;;;;;27.50;35.83;100637.22;6896355;25;20000;-75
2024/04/13 13:56:42;;;;;;;5.43;1.58;;;;;;;27.60;35.41;100636.91;6927791;25;20010;-76
2024/04/13 13:59:44;;;;;;;6.43;1.73;;;;;;;27.60;34.61;100636.09;6947519;25;20010;-75
2024/04/13 14:02:46;;;;;;;;;;;;;;;27.51;35.25;100630.84;6952076;25;20004;-75
2024/04/13 14:05:46;;;;;;;3.05;1.33;;;;;;;27.22;34.94;100628.22;6951806;25;19934;-75
2024/04/13 14:08:50;;;;;;;1.75;1.27;;;;;;;27.02;34.83;100625.31;6918464;25;20004;-76